createdAt,value
2023-04-05T00:01:36.604Z,34.20
2023-04-05T00:04:12.468Z,36.90
2023-04-05T00:07:01.330Z,34.40
2023-04-05T00:09:36.475Z,36.40
2023-04-05T00:12:19.345Z,37.20
2023-04-05T00:14:56.483Z,37.00
2023-04-05T00:17:37.370Z,41.90
2023-04-05T00:20:24.630Z,42.60
2023-04-05T00:23:02.662Z,41.70
2023-04-05T00:25:39.933Z,39.10
2023-04-05T00:28:17.017Z,38.90
2023-04-05T00:31:04.687Z,39.90
2023-04-05T00:33:44.389Z,38.50
2023-04-05T00:36:25.543Z,40.50
2023-04-05T00:38:57.227Z,38.10
2023-04-05T00:41:36.754Z,46.60
2023-04-05T00:44:19.608Z,49.20
2023-04-05T00:46:52.930Z,55.60
2023-04-05T00:49:47.973Z,54.70
2023-04-05T00:52:41.554Z,57.00
2023-04-05T00:56:08.734Z,53.50
2023-04-05T00:58:46.323Z,56.50
2023-04-05T01:01:22.778Z,51.90
2023-04-05T01:04:06.728Z,46.90
2023-04-05T01:07:47.561Z,51.70
2023-04-05T01:10:43.661Z,50.00
2023-04-05T01:13:26.830Z,45.80
2023-04-05T01:16:24.768Z,53.10
2023-04-05T01:19:04.540Z,53.50
2023-04-05T01:22:47.678Z,52.30
2023-04-05T01:25:56.667Z,48.60
2023-04-05T01:28:59.807Z,45.70
2023-04-05T01:31:42.328Z,43.90
2023-04-05T01:34:33.983Z,47.20
2023-04-05T01:37:19.820Z,43.20
2023-04-05T01:40:06.150Z,43.30
2023-04-05T01:42:47.693Z,44.60
2023-04-05T01:45:26.579Z,46.50
2023-04-05T01:48:08.839Z,49.70
2023-04-05T01:50:50.204Z,58.50
2023-04-05T01:53:32.912Z,55.50
2023-04-05T01:56:14.181Z,55.80
2023-04-05T01:58:49.723Z,52.40
2023-04-05T02:01:29.369Z,54.40
2023-04-05T02:04:01.913Z,56.30
2023-04-05T02:06:42.394Z,53.30
2023-04-05T02:09:24.537Z,55.20
2023-04-05T02:12:03.696Z,53.80
2023-04-05T02:14:39.498Z,58.10
2023-04-05T02:17:29.282Z,58.60
2023-04-05T02:20:16.748Z,59.30
2023-04-05T02:22:47.539Z,61.00
2023-04-05T02:25:27.911Z,60.30
2023-04-05T02:28:02.038Z,54.50
2023-04-05T02:30:34.540Z,52.30
2023-04-05T02:33:15.363Z,49.50
2023-04-05T02:35:56.676Z,43.50
2023-04-05T02:38:37.281Z,45.70
2023-04-05T02:41:17.861Z,46.10
2023-04-05T02:44:00.642Z,45.50
2023-04-05T02:46:45.625Z,46.60
2023-04-05T02:49:24.974Z,45.30
2023-04-05T02:52:00.341Z,45.40
2023-04-05T02:54:33.529Z,47.90
2023-04-05T02:57:17.153Z,50.50
2023-04-05T02:59:58.657Z,47.80
2023-04-05T03:02:35.217Z,46.00
2023-04-05T03:05:13.670Z,46.70
2023-04-05T03:07:51.100Z,48.80
2023-04-05T03:10:35.753Z,47.00
2023-04-05T03:13:13.622Z,49.00
2023-04-05T03:15:55.580Z,46.90
2023-04-05T03:18:44.026Z,52.30
2023-04-05T03:21:18.506Z,56.70
2023-04-05T03:23:58.309Z,48.40
2023-04-05T03:26:36.241Z,45.30
2023-04-05T03:29:07.177Z,45.10
2023-04-05T03:31:47.983Z,39.50
2023-04-05T03:34:29.449Z,38.00
2023-04-05T03:37:04.310Z,41.50
2023-04-05T03:39:45.648Z,42.90
2023-04-05T03:42:18.556Z,41.10
2023-04-05T03:44:58.410Z,43.10
2023-04-05T03:47:30.988Z,41.00
2023-04-05T03:50:05.533Z,48.60
2023-04-05T03:53:12.391Z,44.20
2023-04-05T03:55:54.626Z,41.60
2023-04-05T03:58:48.241Z,43.20
2023-04-05T04:01:25.241Z,44.40
2023-04-05T04:04:05.480Z,47.10
2023-04-05T04:06:43.396Z,45.70
2023-04-05T04:09:22.395Z,46.90
2023-04-05T04:11:55.031Z,45.30
2023-04-05T04:14:28.969Z,48.20
2023-04-05T04:17:38.088Z,80.00
2023-04-05T04:20:26.257Z,79.70
2023-04-05T04:23:27.305Z,61.40
2023-04-05T04:26:29.402Z,46.70
2023-04-05T04:29:21.315Z,51.50
2023-04-05T04:32:55.417Z,49.50
2023-04-05T04:38:54.890Z,43.00
2023-04-05T04:44:47.122Z,47.60
2023-04-05T04:47:44.009Z,47.80
2023-04-05T04:50:35.216Z,47.20
2023-04-05T04:53:18.904Z,47.10
2023-04-05T04:55:55.933Z,50.60
2023-04-05T04:58:32.135Z,47.80
2023-04-05T05:01:13.276Z,51.50
2023-04-05T05:03:48.587Z,52.50
2023-04-05T05:06:23.799Z,52.80
2023-04-05T05:08:56.768Z,52.70
2023-04-05T05:11:29.498Z,53.90
2023-04-05T05:14:00.415Z,49.20
2023-04-05T05:16:36.245Z,54.10
2023-04-05T05:19:09.341Z,50.40
2023-04-05T05:21:52.001Z,53.10
2023-04-05T05:24:22.960Z,53.40
2023-04-05T05:29:39.822Z,72.40
2023-04-05T05:32:17.368Z,70.70
2023-04-05T05:34:52.894Z,106.80
2023-04-05T05:37:36.689Z,88.80
2023-04-05T05:42:44.243Z,88.70
2023-04-05T05:45:14.265Z,89.40
2023-04-05T05:47:54.849Z,95.50
2023-04-05T05:50:26.055Z,95.20
2023-04-05T05:53:03.468Z,84.20
2023-04-05T05:55:39.123Z,75.50
2023-04-05T05:58:09.602Z,68.00
2023-04-05T06:00:40.085Z,75.20
2023-04-05T06:03:15.654Z,100.70
2023-04-05T06:06:03.789Z,97.40
2023-04-05T06:08:33.695Z,89.00
2023-04-05T06:11:07.789Z,78.20
2023-04-05T06:13:44.465Z,79.20
2023-04-05T06:16:26.084Z,82.30
2023-04-05T06:19:04.768Z,90.70
2023-04-05T06:21:38.096Z,96.50
2023-04-05T06:24:19.676Z,100.40
2023-04-05T06:26:55.042Z,97.00
2023-04-05T06:29:26.636Z,92.00
2023-04-05T06:32:02.882Z,90.60
2023-04-05T06:34:46.830Z,90.90
2023-04-05T06:37:21.600Z,93.10
2023-04-05T06:39:55.898Z,91.70
2023-04-05T06:42:28.306Z,94.80
2023-04-05T06:45:05.658Z,103.30
2023-04-05T06:47:42.375Z,86.60
2023-04-05T06:50:20.504Z,76.90
2023-04-05T06:52:57.522Z,71.70
2023-04-05T06:55:30.098Z,65.70
2023-04-05T06:58:08.189Z,64.80
2023-04-05T07:00:59.368Z,64.70
2023-04-05T07:03:30.060Z,63.30
2023-04-05T07:06:13.385Z,61.70
2023-04-05T07:08:57.006Z,61.70
2023-04-05T07:11:28.453Z,69.50
2023-04-05T07:14:01.950Z,60.70
2023-04-05T07:16:32.312Z,63.50
2023-04-05T07:19:02.867Z,70.80
2023-04-05T07:21:35.394Z,68.30
2023-04-05T07:24:07.133Z,63.10
2023-04-05T07:26:37.887Z,64.30
2023-04-05T07:29:20.987Z,60.60
2023-04-05T07:31:53.825Z,66.20
2023-04-05T07:34:37.365Z,67.90
2023-04-05T07:37:10.323Z,62.40
2023-04-05T07:39:41.482Z,67.30
2023-04-05T07:42:14.690Z,69.60
2023-04-05T07:44:45.235Z,50.60
2023-04-05T07:47:15.839Z,41.90
2023-04-05T07:50:00.216Z,54.70
2023-04-05T07:52:33.382Z,34.90
2023-04-05T07:55:07.772Z,33.40
2023-04-05T07:57:44.462Z,30.60
2023-04-05T08:05:59.741Z,29.00
2023-04-05T08:11:05.813Z,23.30
2023-04-05T08:13:42.390Z,27.60
2023-04-05T08:16:13.445Z,26.20
2023-04-05T08:18:46.278Z,29.60
2023-04-05T08:21:22.658Z,30.60
2023-04-05T08:24:01.402Z,26.20
2023-04-05T08:26:59.028Z,23.50
2023-04-05T08:29:42.174Z,24.30
2023-04-05T08:32:15.511Z,28.30
2023-04-05T08:34:45.943Z,24.20
2023-04-05T08:37:24.817Z,24.80
2023-04-05T08:40:11.522Z,25.20
2023-04-05T08:43:40.483Z,22.30
2023-04-05T08:46:48.238Z,20.20
2023-04-05T08:49:26.019Z,19.70
2023-04-05T08:52:09.408Z,17.40
2023-04-05T08:54:40.970Z,18.80
2023-04-05T08:57:20.255Z,21.80
2023-04-05T09:03:08.256Z,21.10
2023-04-05T09:05:53.313Z,43.10
2023-04-05T09:08:34.506Z,22.40
2023-04-05T09:11:10.876Z,20.60
2023-04-05T09:13:41.965Z,20.20
2023-04-05T09:16:16.866Z,25.80
2023-04-05T09:18:51.249Z,31.00
2023-04-05T09:21:23.830Z,26.10
2023-04-05T09:23:58.972Z,21.40
2023-04-05T09:26:45.615Z,18.80
2023-04-05T09:29:32.869Z,19.30
2023-04-05T09:32:14.457Z,19.60
2023-04-05T09:35:03.903Z,18.50
2023-04-05T09:37:36.297Z,17.70
2023-04-05T09:40:10.922Z,18.80
2023-04-05T09:42:48.085Z,17.70
2023-04-05T09:45:21.567Z,16.50
2023-04-05T09:48:02.204Z,12.20
2023-04-05T09:50:40.706Z,11.20
2023-04-05T09:53:22.372Z,11.70
2023-04-05T09:55:56.292Z,7.70
2023-04-05T09:58:40.484Z,7.40
2023-04-05T10:01:17.299Z,9.40
2023-04-05T10:03:51.034Z,10.30
2023-04-05T10:06:21.414Z,8.80
2023-04-05T10:08:55.302Z,10.30
2023-04-05T10:11:25.964Z,10.40
2023-04-05T10:13:56.671Z,7.10
2023-04-05T10:16:32.248Z,8.20
2023-04-05T10:19:03.697Z,8.00
2023-04-05T10:21:41.975Z,10.10
2023-04-05T10:24:39.447Z,9.80
2023-04-05T10:27:33.316Z,9.20
2023-04-05T10:30:12.633Z,9.40
2023-04-05T10:33:07.363Z,10.20
2023-04-05T10:36:07.330Z,8.80
2023-04-05T10:39:04.622Z,8.80
2023-04-05T10:41:49.485Z,8.20
2023-04-05T10:44:31.990Z,8.30
2023-04-05T10:47:19.696Z,12.60
2023-04-05T10:49:59.996Z,10.70
2023-04-05T10:52:43.034Z,10.80
2023-04-05T10:55:17.874Z,11.30
2023-04-05T10:57:58.468Z,10.60
2023-04-05T11:00:35.448Z,9.10
2023-04-05T11:03:50.292Z,9.50
2023-04-05T11:06:35.813Z,8.40
2023-04-05T11:09:27.251Z,8.40
2023-04-05T11:12:16.442Z,7.80
2023-04-05T11:14:55.855Z,7.50
2023-04-05T11:17:39.324Z,7.40
2023-04-05T11:20:20.533Z,10.70
2023-04-05T11:23:09.050Z,8.10
2023-04-05T11:26:11.207Z,13.70
2023-04-05T11:28:47.229Z,8.90
2023-04-05T11:31:28.333Z,10.20
2023-04-05T11:34:11.648Z,21.90
2023-04-05T11:36:50.741Z,8.70
2023-04-05T11:39:33.060Z,9.20
2023-04-05T11:42:10.099Z,8.00
2023-04-05T11:45:04.935Z,7.80
2023-04-05T11:47:46.258Z,7.40
2023-04-05T11:50:31.703Z,7.30
2023-04-05T11:53:21.634Z,5.50
2023-04-05T11:56:19.193Z,5.90
2023-04-05T11:58:55.976Z,8.10
2023-04-05T12:01:34.736Z,8.10
2023-04-05T12:04:18.895Z,9.60
2023-04-05T12:07:18.321Z,9.00
2023-04-05T12:10:14.110Z,9.60
2023-04-05T12:12:48.051Z,9.50
2023-04-05T12:15:45.906Z,8.60
2023-04-05T12:18:31.991Z,8.40
2023-04-05T12:21:12.766Z,10.20
2023-04-05T12:23:52.529Z,9.40
2023-04-05T12:26:34.679Z,9.20
2023-04-05T12:29:14.475Z,9.50
2023-04-05T12:32:05.253Z,10.80
2023-04-05T12:34:58.371Z,9.30
2023-04-05T12:37:36.066Z,9.70
2023-04-05T12:40:16.212Z,8.30
2023-04-05T12:43:02.262Z,9.80
2023-04-05T12:45:44.673Z,11.90
2023-04-05T12:51:21.035Z,8.30
2023-04-05T12:53:57.851Z,8.60
2023-04-05T12:56:31.023Z,8.40
2023-04-05T12:59:04.690Z,8.50
2023-04-05T13:01:39.800Z,8.70
2023-04-05T13:04:16.696Z,8.80
2023-04-05T13:06:51.868Z,8.00
2023-04-05T13:09:33.127Z,9.00
2023-04-05T13:12:11.543Z,8.80
2023-04-05T13:15:00.430Z,8.30
2023-04-05T13:17:34.879Z,6.80
2023-04-05T13:20:11.839Z,8.60
2023-04-05T13:22:47.885Z,7.80
2023-04-05T13:25:22.579Z,6.40
2023-04-05T13:27:58.671Z,7.60
2023-04-05T13:30:37.398Z,6.90
2023-04-05T13:33:09.097Z,7.30
2023-04-05T13:35:39.592Z,7.90
2023-04-05T13:38:12.717Z,7.70
2023-04-05T13:40:46.054Z,8.20
2023-04-05T13:43:28.276Z,8.10
2023-04-05T13:45:58.573Z,7.80
2023-04-05T13:48:35.756Z,8.20
2023-04-05T13:51:16.279Z,8.10
2023-04-05T13:54:00.996Z,9.30
2023-04-05T13:56:52.093Z,7.70
2023-04-05T14:03:32.719Z,8.20
2023-04-05T14:09:22.799Z,6.40
2023-04-05T14:11:57.362Z,6.90
2023-04-05T14:14:35.771Z,8.10
2023-04-05T14:17:12.897Z,10.00
2023-04-05T14:19:49.378Z,9.90
2023-04-05T14:22:28.762Z,9.80
2023-04-05T14:25:02.679Z,9.50
2023-04-05T14:27:46.161Z,9.50
2023-04-05T14:30:20.402Z,9.80
2023-04-05T14:33:00.017Z,8.90
2023-04-05T14:35:55.517Z,9.90
2023-04-05T14:38:31.370Z,8.60
2023-04-05T14:41:07.975Z,9.40
2023-04-05T14:43:43.531Z,9.20
2023-04-05T14:46:22.088Z,9.70
2023-04-05T14:48:55.677Z,90.80
2023-04-05T14:51:28.813Z,10.40
2023-04-05T14:54:19.031Z,10.90
2023-04-05T14:57:02.596Z,9.30
2023-04-05T14:59:51.247Z,9.60
2023-04-05T15:03:11.350Z,9.70
2023-04-05T15:06:07.629Z,10.10
2023-04-05T15:08:55.280Z,10.30
2023-04-05T15:12:13.422Z,9.70
2023-04-05T15:14:54.544Z,9.90
2023-04-05T15:17:59.972Z,9.90
2023-04-05T15:20:48.105Z,8.90
2023-04-05T15:23:30.070Z,10.90
2023-04-05T15:26:22.616Z,11.10
2023-04-05T15:29:28.026Z,10.70
2023-04-05T15:32:15.518Z,10.80
2023-04-05T15:35:16.509Z,11.80
2023-04-05T15:37:51.921Z,10.70
2023-04-05T15:40:31.729Z,10.20
2023-04-05T15:43:11.805Z,10.60
2023-04-05T15:45:51.397Z,10.80
2023-04-05T15:48:40.033Z,9.60
2023-04-05T15:51:13.870Z,10.40
2023-04-05T15:54:52.562Z,10.00
2023-04-05T15:57:31.142Z,9.10
2023-04-05T16:00:17.119Z,10.10
2023-04-05T16:02:56.149Z,9.40
2023-04-05T16:05:35.493Z,9.20
2023-04-05T16:08:11.080Z,11.80
2023-04-05T16:10:53.630Z,11.40
2023-04-05T16:13:57.485Z,12.50
2023-04-05T16:16:41.964Z,11.00
2023-04-05T16:19:25.485Z,9.80
2023-04-05T16:22:00.836Z,10.50
2023-04-05T16:24:37.454Z,11.10
2023-04-05T16:27:16.835Z,11.80
2023-04-05T16:29:51.277Z,13.60
2023-04-05T16:32:23.595Z,14.30
2023-04-05T16:34:56.256Z,13.70
2023-04-05T16:37:27.848Z,15.70
2023-04-05T16:40:00.642Z,17.80
2023-04-05T16:42:38.254Z,18.60
2023-04-05T16:45:13.244Z,19.80
2023-04-05T16:47:44.273Z,24.50
2023-04-05T16:50:23.703Z,23.40
2023-04-05T16:53:03.734Z,20.90
2023-04-05T16:55:38.501Z,14.40
2023-04-05T16:58:09.259Z,17.00
2023-04-05T17:00:45.458Z,17.10
2023-04-05T17:03:22.984Z,15.90
2023-04-05T17:05:54.808Z,17.10
2023-04-05T17:08:32.790Z,17.00
2023-04-05T17:11:10.836Z,16.50
2023-04-05T17:13:50.861Z,16.90
2023-04-05T17:16:25.912Z,15.40
2023-04-05T17:19:02.714Z,19.80
2023-04-05T17:21:37.459Z,18.40
2023-04-05T17:24:12.134Z,18.90
2023-04-05T17:26:49.859Z,20.70
2023-04-05T17:29:27.165Z,20.30
2023-04-05T17:31:58.249Z,19.30
2023-04-05T17:34:34.175Z,17.50
2023-04-05T17:37:05.164Z,16.20
2023-04-05T17:39:45.378Z,15.80
2023-04-05T17:42:20.356Z,17.50
2023-04-05T17:47:31.630Z,14.90
2023-04-05T17:50:07.208Z,16.50
2023-04-05T17:52:48.868Z,17.90
2023-04-05T17:55:22.826Z,20.80
2023-04-05T17:57:55.885Z,20.90
2023-04-05T18:00:29.593Z,22.70
2023-04-05T18:03:13.166Z,21.30
2023-04-05T18:05:46.827Z,23.00
2023-04-05T18:08:17.670Z,25.60
2023-04-05T18:10:58.944Z,27.20
2023-04-05T18:13:40.319Z,33.70
2023-04-05T18:16:11.019Z,30.60
2023-04-05T18:18:46.865Z,28.70
2023-04-05T18:21:34.296Z,26.70
2023-04-05T18:24:12.520Z,27.70
2023-04-05T18:26:45.474Z,32.60
2023-04-05T18:29:17.886Z,38.70
2023-04-05T18:31:47.987Z,52.10
2023-04-05T18:36:59.961Z,58.10
2023-04-05T18:40:07.158Z,49.90
2023-04-05T18:42:40.795Z,45.70
2023-04-05T18:45:11.914Z,41.00
2023-04-05T18:47:54.020Z,30.30
2023-04-05T18:50:26.576Z,27.20
2023-04-05T18:53:09.813Z,26.90
2023-04-05T18:55:42.390Z,27.40
2023-04-05T18:58:12.728Z,26.40
2023-04-05T19:00:42.957Z,28.90
2023-04-05T19:03:16.867Z,31.10
2023-04-05T19:05:53.820Z,34.70
2023-04-05T19:08:47.125Z,35.30
2023-04-05T19:11:19.399Z,33.80
2023-04-05T19:13:52.891Z,38.00
2023-04-05T19:16:28.506Z,41.30
2023-04-05T19:18:58.091Z,34.60
2023-04-05T19:21:28.621Z,34.40
2023-04-05T19:23:58.112Z,37.20
2023-04-05T19:26:35.918Z,35.30
2023-04-05T19:29:08.630Z,30.30
2023-04-05T19:31:51.327Z,29.10
2023-04-05T19:34:21.957Z,31.20
2023-04-05T19:37:01.184Z,32.80
2023-04-05T19:40:20.577Z,32.70
2023-04-05T19:43:43.429Z,38.70
2023-04-05T19:46:17.158Z,39.60
2023-04-05T19:48:54.670Z,42.20
2023-04-05T19:51:33.172Z,38.10
2023-04-05T19:54:15.125Z,37.30
2023-04-05T19:56:48.594Z,38.20
2023-04-05T19:59:33.493Z,39.80
2023-04-05T20:02:34.731Z,37.60
2023-04-05T20:05:26.057Z,40.50
2023-04-05T20:07:56.648Z,37.00
2023-04-05T20:10:42.442Z,36.70
2023-04-05T20:13:12.547Z,38.00
2023-04-05T20:15:46.870Z,35.60
2023-04-05T20:18:26.292Z,36.10
2023-04-05T20:21:03.409Z,38.10
2023-04-05T20:23:38.471Z,38.30
2023-04-05T20:26:35.644Z,37.70
2023-04-05T20:29:11.287Z,34.60
2023-04-05T20:31:57.735Z,34.70
2023-04-05T20:34:39.474Z,39.50
2023-04-05T20:37:13.950Z,45.70
2023-04-05T20:39:49.829Z,46.50
2023-04-05T20:42:26.819Z,89.40
2023-04-05T20:44:57.648Z,68.90
2023-04-05T20:47:36.885Z,75.90
2023-04-05T20:50:14.277Z,68.10
2023-04-05T20:52:50.005Z,69.90
2023-04-05T20:55:26.973Z,73.00
2023-04-05T20:57:57.025Z,72.80
2023-04-05T21:00:29.991Z,73.80
2023-04-05T21:03:00.207Z,82.60
2023-04-05T21:05:30.203Z,79.10
2023-04-05T21:08:00.289Z,84.60
2023-04-05T21:10:36.973Z,77.60
2023-04-05T21:13:14.052Z,76.70
2023-04-05T21:15:50.429Z,74.20
2023-04-05T21:18:22.531Z,69.10
2023-04-05T21:20:57.557Z,64.40
2023-04-05T21:23:32.053Z,63.40
2023-04-05T21:26:10.804Z,62.00
2023-04-05T21:28:45.206Z,55.20
2023-04-05T21:31:23.845Z,53.00
2023-04-05T21:33:55.379Z,50.10
2023-04-05T21:36:28.496Z,43.50
2023-04-05T21:39:04.322Z,44.70
2023-04-05T21:41:35.246Z,43.50
2023-04-05T21:44:13.573Z,38.50
2023-04-05T21:46:57.856Z,39.20
2023-04-05T21:49:30.795Z,40.80
2023-04-05T21:52:00.360Z,42.10
2023-04-05T21:54:29.578Z,45.90
2023-04-05T21:56:59.292Z,50.30
2023-04-05T21:59:30.793Z,48.10
2023-04-05T22:02:09.000Z,49.00
2023-04-05T22:04:41.341Z,46.00
2023-04-05T22:07:14.915Z,48.70
2023-04-05T22:09:49.749Z,57.10
2023-04-05T22:12:23.233Z,61.40
2023-04-05T22:14:59.329Z,65.80
2023-04-05T22:20:17.879Z,55.50
2023-04-05T22:22:59.149Z,63.10
2023-04-05T22:26:28.136Z,67.10
2023-04-05T22:29:04.222Z,67.60
2023-04-05T22:31:39.576Z,64.30
2023-04-05T22:34:27.831Z,65.50
2023-04-05T22:37:08.236Z,67.40
2023-04-05T22:39:49.737Z,69.20
2023-04-05T22:42:25.265Z,68.90
2023-04-05T22:48:16.153Z,68.70
2023-04-05T22:50:52.786Z,70.80
2023-04-05T22:53:28.770Z,67.90
2023-04-05T22:57:15.855Z,66.60
2023-04-05T22:59:31.986Z,62.30
2023-04-05T23:02:05.326Z,71.10
2023-04-05T23:04:41.311Z,63.20
2023-04-05T23:07:13.811Z,64.00
2023-04-05T23:09:50.387Z,63.40
2023-04-05T23:12:25.892Z,60.40
2023-04-05T23:14:59.745Z,58.70
2023-04-05T23:17:36.824Z,62.70
2023-04-05T23:20:16.335Z,57.60
2023-04-05T23:22:52.639Z,66.10
2023-04-05T23:25:35.249Z,56.70
2023-04-05T23:28:33.903Z,54.70
2023-04-05T23:31:18.023Z,48.90
2023-04-05T23:33:50.321Z,49.50
2023-04-05T23:36:22.552Z,45.00
2023-04-05T23:39:07.562Z,43.30
2023-04-05T23:44:19.580Z,46.50
2023-04-05T23:46:55.660Z,51.40
2023-04-05T23:49:28.244Z,59.40
2023-04-05T23:54:29.200Z,56.00
2023-04-05T23:57:25.010Z,60.40
